This is the latest recevied weather packets stored in our database for station/object KB3UMW-13. If no packets are shown the sender has not sent any weather packets the latest 10 day(s).
| Time | Temp. | Humidity | Pressure | Rain* | Wind** | Luminosity | Snow |
|---|---|---|---|---|---|---|---|
| 1777868583 | 0° C | 91% | 1014.6 hPa | 0 mm | - | 0 W/m² | - |
| 1777868279 | 0° C | 90% | 1014.8 hPa | 0 mm | - | 0 W/m² | - |
| 1777867975 | 0° C | 90% | 1015 hPa | 0 mm | - | 0 W/m² | - |
| 1777867671 | 0° C | 90% | 1014.7 hPa | 0 mm | - | 0 W/m² | - |
| 1777867369 | 0° C | 90% | 1014.7 hPa | 0 mm | - | 0 W/m² | - |
| 1777867064 | 0° C | 89% | 1014.7 hPa | 0 mm | - | 0 W/m² | - |
| 1777866762 | 0° C | 89% | 1015 hPa | 0 mm | - | 0 W/m² | - |
| 1777866459 | 0° C | 89% | 1015 hPa | 0 mm | - | 0 W/m² | - |
| 1777866157 | 0° C | 89% | 1015 hPa | 0 mm | - | 0 W/m² | - |
| 1777865854 | 0.56° C | 88% | 1015.1 hPa | 0 mm | - | 0 W/m² | - |
| 1777865551 | 0.56° C | 88% | 1015.1 hPa | 0 mm | - | 0 W/m² | - |
| 1777865248 | 0.56° C | 87% | 1015 hPa | 0 mm | - | 0 W/m² | - |
| 1777864945 | 0.56° C | 86% | 1015 hPa | 0 mm | - | 0 W/m² | - |
| 1777864642 | 0.56° C | 86% | 1015.2 hPa | 0 mm | - | 0 W/m² | - |
| 1777864339 | 1.11° C | 87% | 1015 hPa | 0 mm | - | 0 W/m² | - |
| 1777864035 | 1.11° C | 85% | 1015.1 hPa | 0 mm | - | 0 W/m² | - |
| 1777863733 | 1.11° C | 85% | 1015.1 hPa | 0 mm | - | 0 W/m² | - |
| 1777863429 | 1.67° C | 85% | 1014.7 hPa | 0 mm | - | 0 W/m² | - |
| 1777863125 | 1.11° C | 84% | 1014.8 hPa | 0 mm | - | 0 W/m² | - |
| 1777862823 | 1.67° C | 83% | 1014.6 hPa | 0 mm | - | 0 W/m² | - |
| 1777862519 | 1.67° C | 85% | 1015 hPa | 0 mm | - | 0 W/m² | - |
| 1777862216 | 1.67° C | 83% | 1015 hPa | 0 mm | - | 0 W/m² | - |
| 1777861912 | 1.67° C | 83% | 1015 hPa | 0 mm | - | 0 W/m² | - |
| 1777861608 | 2.22° C | 82% | 1014.6 hPa | 0 mm | - | 0 W/m² | - |
| 1777861304 | 2.22° C | 80% | 1014.8 hPa | 0 mm | - | 0 W/m² | - |
* Rain latest hour (hover to see other rain measurements)
** Current wind speed in m/s (hover to see current wind gust speed)